createdAt,value
2022-12-03T00:02:55.684Z,5.43
2022-12-03T00:06:57.525Z,5.75
2022-12-03T00:10:59.381Z,7.40
2022-12-03T00:15:01.666Z,7.50
2022-12-03T00:19:04.989Z,6.38
2022-12-03T00:23:06.819Z,5.10
2022-12-03T00:27:08.503Z,6.35
2022-12-03T00:31:10.313Z,6.38
2022-12-03T00:35:12.138Z,4.85
2022-12-03T00:39:13.858Z,10.05
2022-12-03T00:43:15.796Z,10.15
2022-12-03T00:47:17.612Z,7.57
2022-12-03T00:51:19.432Z,6.63
2022-12-03T00:55:21.680Z,6.15
2022-12-03T00:59:23.457Z,8.85
2022-12-03T01:03:25.819Z,7.68
2022-12-03T01:07:28.683Z,5.57
2022-12-03T01:11:39.513Z,4.85
2022-12-03T01:15:41.823Z,5.03
2022-12-03T01:19:48.204Z,4.63
2022-12-03T01:23:50.422Z,5.22
2022-12-03T01:27:52.167Z,4.75
2022-12-03T01:32:12.812Z,5.78
2022-12-03T01:36:14.705Z,7.65
2022-12-03T01:40:20.500Z,8.60
2022-12-03T01:44:28.216Z,8.48
2022-12-03T01:48:35.387Z,8.52
2022-12-03T01:52:39.743Z,7.68
2022-12-03T01:56:41.502Z,6.47
2022-12-03T02:00:43.223Z,6.78
2022-12-03T02:04:45.093Z,7.10
2022-12-03T02:08:48.048Z,7.82
2022-12-03T02:13:19.056Z,6.40
2022-12-03T02:17:20.954Z,7.22
2022-12-03T02:21:44.819Z,6.65
2022-12-03T02:25:47.081Z,6.40
2022-12-03T02:29:49.330Z,5.78
2022-12-03T02:33:51.298Z,6.35
2022-12-03T02:38:08.251Z,7.38
2022-12-03T02:42:29.280Z,7.50
2022-12-03T02:46:31.335Z,8.43
2022-12-03T02:50:36.136Z,7.93
2022-12-03T02:54:38.338Z,8.77
2022-12-03T02:58:42.260Z,7.57
2022-12-03T03:02:46.275Z,7.57
2022-12-03T03:06:48.181Z,7.05
2022-12-03T03:10:50.353Z,5.40
2022-12-03T03:14:52.950Z,7.82
2022-12-03T03:18:55.067Z,5.85
2022-12-03T03:23:13.542Z,8.35
2022-12-03T03:27:15.296Z,6.72
2022-12-03T03:31:21.449Z,6.55
2022-12-03T03:35:24.998Z,6.23
2022-12-03T03:39:26.875Z,4.97
2022-12-03T03:43:30.686Z,7.75
2022-12-03T03:47:32.776Z,5.18
2022-12-03T03:51:37.121Z,4.32
2022-12-03T03:55:39.797Z,6.75
2022-12-03T03:59:41.790Z,6.63
2022-12-03T04:03:43.681Z,8.25
2022-12-03T04:07:45.855Z,6.68
2022-12-03T04:12:06.355Z,5.78
2022-12-03T04:16:08.415Z,4.80
2022-12-03T04:20:11.136Z,6.03
2022-12-03T04:24:13.029Z,7.03
2022-12-03T04:28:33.470Z,5.97
2022-12-03T04:32:53.685Z,4.60
2022-12-03T04:36:55.579Z,5.45
2022-12-03T04:41:01.312Z,5.00
2022-12-03T04:45:03.090Z,5.10
2022-12-03T04:49:04.847Z,5.07
2022-12-03T04:53:06.639Z,4.47
2022-12-03T04:57:09.432Z,4.95
2022-12-03T05:01:11.246Z,5.28
2022-12-03T05:05:13.195Z,5.70
2022-12-03T05:09:15.593Z,5.93
2022-12-03T05:13:17.372Z,5.90
2022-12-03T05:17:19.103Z,5.63
2022-12-03T05:21:20.986Z,5.95
2022-12-03T05:25:22.764Z,6.72
2022-12-03T05:29:24.563Z,7.60
2022-12-03T05:33:26.330Z,5.57
2022-12-03T05:37:28.093Z,4.90
2022-12-03T05:42:08.076Z,5.97
2022-12-03T05:46:09.923Z,6.43
2022-12-03T05:50:12.127Z,6.13
2022-12-03T05:54:13.875Z,7.22
2022-12-03T05:58:15.630Z,6.40
2022-12-03T06:02:17.431Z,7.30
2022-12-03T06:06:19.267Z,6.28
2022-12-03T06:10:24.105Z,5.97
2022-12-03T06:14:25.870Z,6.65
2022-12-03T06:18:27.590Z,6.68
2022-12-03T06:22:29.465Z,8.00
2022-12-03T06:26:31.207Z,5.47
2022-12-03T06:30:34.311Z,5.50
2022-12-03T06:34:36.206Z,6.53
2022-12-03T06:38:38.115Z,5.20
2022-12-03T06:42:39.925Z,4.82
2022-12-03T06:46:42.211Z,5.13
2022-12-03T06:50:44.026Z,5.80
2022-12-03T06:54:45.928Z,5.15
2022-12-03T06:58:47.772Z,3.60
2022-12-03T07:02:49.733Z,6.63
2022-12-03T07:06:51.662Z,4.45
2022-12-03T07:10:53.659Z,5.35
2022-12-03T07:14:55.866Z,6.28
2022-12-03T07:18:57.982Z,7.28
2022-12-03T07:22:59.854Z,5.60
2022-12-03T07:27:01.647Z,6.75
2022-12-03T07:31:03.545Z,6.72
2022-12-03T07:35:07.510Z,6.30
2022-12-03T07:39:09.317Z,6.28
2022-12-03T07:43:11.289Z,6.30
2022-12-03T07:47:13.148Z,6.10
2022-12-03T07:51:15.575Z,6.28
2022-12-03T07:55:18.111Z,6.00
2022-12-03T07:59:21.468Z,6.32
2022-12-03T08:03:23.709Z,6.40
2022-12-03T08:07:25.503Z,7.75
2022-12-03T08:11:29.074Z,7.95
2022-12-03T08:15:38.513Z,6.18
2022-12-03T08:19:46.349Z,6.10
2022-12-03T08:27:51.432Z,5.55
2022-12-03T08:31:57.262Z,5.50
2022-12-03T08:36:01.906Z,6.88
2022-12-03T08:40:32.783Z,6.63
2022-12-03T08:44:40.995Z,7.25
2022-12-03T08:48:48.345Z,7.13
2022-12-03T08:52:52.803Z,7.07
2022-12-03T08:56:54.974Z,7.93
2022-12-03T09:01:08.620Z,6.70
2022-12-03T09:05:18.237Z,5.95
2022-12-03T09:09:21.083Z,6.70
2022-12-03T09:13:22.909Z,6.43
2022-12-03T09:17:24.755Z,6.28
2022-12-03T09:21:26.486Z,5.10
2022-12-03T09:25:28.251Z,5.65
2022-12-03T09:29:30.033Z,4.63
2022-12-03T09:33:32.531Z,6.32
2022-12-03T09:37:34.328Z,5.72
2022-12-03T09:41:36.300Z,6.30
2022-12-03T09:45:38.400Z,6.07
2022-12-03T09:49:41.072Z,4.85
2022-12-03T09:53:42.960Z,7.03
2022-12-03T09:57:44.849Z,6.32
2022-12-03T10:01:46.976Z,7.10
2022-12-03T10:05:48.891Z,7.55
2022-12-03T10:09:51.562Z,6.53
2022-12-03T10:13:55.228Z,6.30
2022-12-03T10:17:58.424Z,6.88
2022-12-03T10:22:00.290Z,5.60
2022-12-03T10:26:03.570Z,4.35
2022-12-03T10:30:19.712Z,7.47
2022-12-03T10:34:35.255Z,6.20
2022-12-03T10:38:37.242Z,6.57
2022-12-03T10:42:40.856Z,5.45
2022-12-03T10:46:42.891Z,5.18
2022-12-03T10:50:50.960Z,6.38
2022-12-03T10:54:53.072Z,6.93
2022-12-03T10:58:55.408Z,4.47
2022-12-03T11:02:57.547Z,5.50
2022-12-03T11:07:01.932Z,4.93
2022-12-03T11:11:15.867Z,4.00
2022-12-03T11:15:44.395Z,5.03
2022-12-03T11:19:47.725Z,5.15
2022-12-03T11:23:49.524Z,6.00
2022-12-03T11:28:12.961Z,5.10
2022-12-03T11:32:39.764Z,4.38
2022-12-03T11:37:09.688Z,5.33
2022-12-03T11:41:13.004Z,5.00
2022-12-03T11:45:33.975Z,5.95
2022-12-03T11:49:38.459Z,6.35
2022-12-03T11:53:40.614Z,5.72
2022-12-03T11:57:43.392Z,5.78
2022-12-03T12:01:46.304Z,7.00
2022-12-03T12:06:03.320Z,5.63
2022-12-03T12:10:05.889Z,5.32
2022-12-03T12:14:13.075Z,6.20
2022-12-03T12:18:43.878Z,4.95
2022-12-03T12:22:45.643Z,5.63
2022-12-03T12:26:51.637Z,5.03
2022-12-03T12:30:53.450Z,5.15
2022-12-03T12:35:03.737Z,4.32
2022-12-03T12:39:16.077Z,6.80
2022-12-03T12:43:24.321Z,4.95
2022-12-03T12:47:30.107Z,6.43
2022-12-03T12:51:32.094Z,5.00
2022-12-03T12:55:37.706Z,4.70
2022-12-03T12:59:39.633Z,6.00
2022-12-03T13:03:41.445Z,5.45
2022-12-03T13:07:44.579Z,4.40
2022-12-03T13:11:52.712Z,6.03
2022-12-03T13:16:01.082Z,6.60
2022-12-03T13:20:14.629Z,6.10
2022-12-03T13:24:28.883Z,5.13
2022-12-03T13:28:31.362Z,4.90
2022-12-03T13:32:37.777Z,6.55
2022-12-03T13:36:42.873Z,5.97
2022-12-03T13:40:44.720Z,6.28
2022-12-03T13:44:49.104Z,4.85
2022-12-03T13:48:50.910Z,5.60
2022-12-03T13:52:53.136Z,5.60
2022-12-03T13:56:54.893Z,5.07
2022-12-03T14:00:56.828Z,5.75
2022-12-03T14:05:00.648Z,4.40
2022-12-03T14:09:04.083Z,5.35
2022-12-03T14:13:05.891Z,5.40
2022-12-03T14:17:09.598Z,4.63
2022-12-03T14:21:11.418Z,5.75
2022-12-03T14:25:13.442Z,4.80
2022-12-03T14:29:15.183Z,3.70
2022-12-03T14:33:16.943Z,6.78
2022-12-03T14:37:18.848Z,6.00
2022-12-03T14:41:40.825Z,5.05
2022-12-03T14:45:42.667Z,5.35
2022-12-03T14:49:44.521Z,5.63
2022-12-03T14:53:46.270Z,5.35
2022-12-03T14:57:47.990Z,4.70
2022-12-03T15:01:49.952Z,4.90
2022-12-03T15:05:51.757Z,4.65
2022-12-03T15:09:54.016Z,4.70
2022-12-03T15:13:56.145Z,4.10
2022-12-03T15:17:57.957Z,4.20
2022-12-03T15:21:59.772Z,4.15
2022-12-03T15:26:01.581Z,4.07
2022-12-03T15:30:03.950Z,5.38
2022-12-03T15:34:23.198Z,4.07
2022-12-03T15:38:25.317Z,4.30
2022-12-03T15:42:29.619Z,4.63
2022-12-03T15:46:31.689Z,3.92
2022-12-03T15:50:38.502Z,3.30
2022-12-03T15:54:41.813Z,3.65
2022-12-03T15:58:43.670Z,3.90
2022-12-03T16:02:52.247Z,3.47
2022-12-03T16:06:54.620Z,3.95
2022-12-03T16:10:56.352Z,4.50
2022-12-03T16:14:58.100Z,4.68
2022-12-03T16:18:59.951Z,4.35
2022-12-03T16:23:01.727Z,5.63
2022-12-03T16:27:03.592Z,5.93
2022-12-03T16:31:05.573Z,5.53
2022-12-03T16:35:07.785Z,4.25
2022-12-03T16:39:09.632Z,4.25
2022-12-03T16:43:11.420Z,4.45
2022-12-03T16:47:13.199Z,4.28
2022-12-03T16:51:15.273Z,3.90
2022-12-03T16:55:17.122Z,5.00
2022-12-03T16:59:18.887Z,5.13
2022-12-03T17:03:22.004Z,4.40
2022-12-03T17:07:23.788Z,5.25
2022-12-03T17:11:25.546Z,3.72
2022-12-03T17:15:27.285Z,4.80
2022-12-03T17:19:29.352Z,4.00
2022-12-03T17:23:31.244Z,4.65
2022-12-03T17:27:33.051Z,7.97
2022-12-03T17:31:41.424Z,7.18
2022-12-03T17:35:45.571Z,6.07
2022-12-03T17:39:47.691Z,5.03
2022-12-03T17:43:49.620Z,4.35
2022-12-03T17:47:51.415Z,4.68
2022-12-03T17:51:53.214Z,3.67
2022-12-03T17:55:54.995Z,13.68
2022-12-03T17:59:57.264Z,17.90
2022-12-03T18:03:59.327Z,32.33
2022-12-03T18:08:01.305Z,53.63
2022-12-03T18:12:03.223Z,25.17
2022-12-03T18:16:05.430Z,18.00
2022-12-03T18:20:07.729Z,11.60
2022-12-03T18:24:09.760Z,8.48
2022-12-03T18:28:11.819Z,5.90
2022-12-03T18:32:27.815Z,4.88
2022-12-03T18:40:35.678Z,5.10
2022-12-03T18:44:37.432Z,4.57
2022-12-03T18:48:42.165Z,5.10
2022-12-03T18:52:43.896Z,4.25
2022-12-03T18:56:45.688Z,4.15
2022-12-03T19:00:47.541Z,5.40
2022-12-03T19:04:49.505Z,6.25
2022-12-03T19:08:54.401Z,5.18
2022-12-03T19:12:56.339Z,3.58
2022-12-03T19:16:58.202Z,3.50
2022-12-03T19:21:00.047Z,3.33
2022-12-03T19:25:02.594Z,4.25
2022-12-03T19:29:04.481Z,3.20
2022-12-03T19:33:06.203Z,4.85
2022-12-03T19:37:08.054Z,4.07
2022-12-03T19:41:11.605Z,3.90
2022-12-03T19:45:13.360Z,4.55
2022-12-03T19:49:16.752Z,3.72
2022-12-03T19:53:20.138Z,4.30
2022-12-03T19:57:23.679Z,3.72
2022-12-03T20:01:28.089Z,4.18
2022-12-03T20:05:33.302Z,4.10
2022-12-03T20:09:35.333Z,3.58
2022-12-03T20:13:37.235Z,3.72
2022-12-03T20:17:39.508Z,3.45
2022-12-03T20:21:44.371Z,2.92
2022-12-03T20:25:46.095Z,4.72
2022-12-03T20:29:47.947Z,5.57
2022-12-03T20:33:54.090Z,3.55
2022-12-03T20:37:55.995Z,4.18
2022-12-03T20:41:57.864Z,3.42
2022-12-03T20:46:36.270Z,3.03
2022-12-03T20:50:39.083Z,3.20
2022-12-03T20:54:40.841Z,2.90
2022-12-03T20:58:42.621Z,4.60
2022-12-03T21:02:45.247Z,5.00
2022-12-03T21:06:46.998Z,4.10
2022-12-03T21:10:48.736Z,3.15
2022-12-03T21:14:50.509Z,3.78
2022-12-03T21:18:52.433Z,3.13
2022-12-03T21:22:54.182Z,3.53
2022-12-03T21:26:56.027Z,3.10
2022-12-03T21:31:02.981Z,3.60
2022-12-03T21:35:05.182Z,3.50
2022-12-03T21:39:07.726Z,3.88
2022-12-03T21:43:09.513Z,3.53
2022-12-03T21:47:14.311Z,4.18
2022-12-03T21:51:17.993Z,4.05
2022-12-03T21:55:19.745Z,3.28
2022-12-03T21:59:21.702Z,4.10
2022-12-03T22:03:23.541Z,4.60
2022-12-03T22:07:25.364Z,4.53
2022-12-03T22:11:27.119Z,4.80
2022-12-03T22:15:28.908Z,4.88
2022-12-03T22:19:30.656Z,5.20
2022-12-03T22:23:32.949Z,4.15
2022-12-03T22:27:34.841Z,3.70
2022-12-03T22:31:36.782Z,4.00
2022-12-03T22:35:38.825Z,4.50
2022-12-03T22:39:40.622Z,3.58
2022-12-03T22:43:42.884Z,4.22
2022-12-03T22:47:44.665Z,3.90
2022-12-03T22:51:47.068Z,3.60
2022-12-03T22:55:56.969Z,2.90
2022-12-03T22:59:58.740Z,3.00
2022-12-03T23:04:01.147Z,3.50
2022-12-03T23:08:05.868Z,2.97
2022-12-03T23:12:08.001Z,2.92
2022-12-03T23:16:16.591Z,4.30
2022-12-03T23:20:19.064Z,4.22
2022-12-03T23:24:20.920Z,4.00
2022-12-03T23:28:22.799Z,8.15
2022-12-03T23:32:24.592Z,4.57
2022-12-03T23:36:28.403Z,3.97
2022-12-03T23:40:30.405Z,3.15
2022-12-03T23:44:32.206Z,3.53
2022-12-03T23:48:34.310Z,3.03
2022-12-03T23:52:36.654Z,3.83
2022-12-03T23:56:39.530Z,3.50
